Latest Weather Observations for Edinburgh

IDS60801

Issued at 8:05 pm CST Thursday 28 August 2014 (issued every 30 minutes, with the page automatically refreshed every 10 minutes)

About weather observations | Map of weather stations | Latest weather observations for SA | Other Formats
Station Details ID: 023083 Name: EDINBURGH RAAF Lat: -34.71 Lon: 138.62 Height: 16.54 m
Data from the previous 72 hours. | See also: Recent months at Edinburgh
Date/Time
CST
Temp
°C
App
Temp
°C
Dew
Point
Rel
Hum
%
Delta-T
°C
Wind Press
QNH
hPa
Press
MSL
hPa
Rain
since 9 am
mm
Dir
 
Spd
km/h
Gust
km/h
Spd
kts
Gust
kts
28/08:00pm 14.9 13.2 8.2 64 3.3 SE 7 11 4 6 1027.6 1027.6 0.0
28/07:30pm 14.5 13.1 8.9 69 2.8 SE 6 9 3 5 1027.3 1027.3 0.0
28/07:00pm 16.8 15.2 8.0 56 4.5 SSE 6 9 3 5 1027.2 1027.2 0.0
28/06:30pm 17.2 15.3 7.5 53 4.8 S 7 9 4 5 1027.1 1027.1 0.0
28/06:00pm 18.6 16.7 7.4 48 5.6 S 7 9 4 5 1027.1 1027.1 0.0
28/05:30pm 19.0 16.9 8.1 49 5.6 S 9 11 5 6 1026.9 1026.9 0.0
28/05:00pm 19.8 17.6 9.4 51 5.5 WSW 11 15 6 8 1027.0 1027.0 0.0
28/04:30pm 20.4 16.9 7.4 43 6.6 SW 15 19 8 10 1026.9 1026.9 0.0
28/04:00pm 21.1 17.6 8.7 45 6.5 WSW 17 19 9 10 1026.9 1026.9 0.0
28/03:30pm 21.8 18.6 10.0 47 6.4 W 17 19 9 10 1026.6 1026.6 0.0
28/03:00pm 22.1 19.6 8.2 41 7.3 W 11 17 6 9 1026.6 1026.6 0.0
28/02:30pm 22.0 18.8 8.5 42 7.1 W 15 20 8 11 1026.8 1026.8 0.0
28/02:00pm 22.4 20.5 9.2 43 7.1 WSW 9 15 5 8 1027.0 1027.0 0.0
28/01:30pm 22.9 20.1 5.3 32 8.8 N 9 13 5 7 1027.3 1027.3 0.0
28/01:00pm 22.5 19.6 6.7 36 8.1 NE 11 19 6 10 1027.6 1027.6 0.0
28/12:30pm 22.6 20.6 7.2 37 7.9 NNW 7 17 4 9 1028.0 1028.0 0.0
28/12:00pm 22.0 18.6 7.8 40 7.4 NE 15 24 8 13 1028.2 1028.2 0.0
28/11:30am 21.7 18.5 8.6 43 6.9 NNE 15 24 8 13 1028.5 1028.5 0.0
28/11:00am 21.0 17.9 8.9 46 6.4 NNE 15 20 8 11 1028.7 1028.7 0.0
28/10:30am 19.9 17.0 8.3 47 6.0 NNE 13 17 7 9 1028.8 1028.8 0.0
28/10:00am 17.8 16.1 9.9 60 4.2 NNE 9 15 5 8 1028.9 1028.9 0.0
28/09:30am 14.8 13.3 9.0 68 2.9 ENE 7 9 4 5 1029.1 1029.1 0.0
28/09:00am 12.2 10.0 7.9 75 2.1 NE 9 9 5 5 1029.2 1029.2 0.0
28/08:30am 10.1 7.7 7.2 82 1.4 NE 9 11 5 6 1029.4 1029.4 0.0
28/08:00am 8.4 6.5 6.5 88 0.9 NE 6 9 3 5 1029.4 1029.4 0.0
28/07:30am 5.9 3.5 4.5 91 0.6 NNW 6 6 3 3 1029.1 1029.1 0.0
28/07:00am 4.5 2.6 3.0 90 0.6 NNE 2 6 1 3 1028.6 1028.6 0.0
28/06:30am 5.0 3.6 3.7 91 0.5 CALM 0 0 0 0 1028.2 1028.2 0.0
28/06:00am 4.5 3.0 2.8 89 0.7 NNE 0 0 0 0 1027.8 1027.8 0.0
28/05:30am 5.7 4.4 4.0 89 0.7 CALM 0 0 0 0 1027.8 1027.8 0.0
28/05:00am 6.2 5.0 4.7 90 0.6 CALM 0 0 0 0 1027.6 1027.6 0.0
28/04:30am 4.8 3.3 3.0 88 0.7 CALM 0 0 0 0 1027.6 1027.6 0.0
28/04:00am 6.0 4.7 4.2 88 0.8 CALM 0 0 0 0 1027.3 1027.3 0.0
28/03:30am 6.6 5.5 4.9 89 0.7 CALM 0 0 0 0 1027.3 1027.3 0.0
28/03:11am 6.6 4.7 5.1 90 0.7 WSW 4 6 2 3 1027.4 1027.4 0.0
28/03:00am 6.0 3.6 4.5 90 0.6 W 6 7 3 4 1027.5 1027.5 0.0
28/02:53am 5.7 3.3 4.3 91 0.6 W 6 9 3 5 1027.5 1027.5 0.0
28/02:30am 5.1 2.9 3.4 89 0.7 NNW 4 9 2 5 1027.5 1027.5 0.0
28/02:00am 6.9 5.8 5.1 88 0.8 CALM 0 0 0 0 1027.7 1027.7 0.0
28/01:30am 6.8 5.7 5.0 88 0.8 CALM 0 0 0 0 1027.9 1027.9 0.0
28/01:00am 7.2 6.1 5.2 87 0.9 CALM 0 6 0 3 1028.0 1028.0 0.0
28/12:30am 7.9 5.6 5.7 86 1.0 NNW 7 9 4 5 1028.0 1028.0 0.0
28/12:00am 8.2 7.3 6.0 86 1.0 N 0 0 0 0 1028.0 1028.0 0.0
 
Date/Time
CST
Temp
°C
App
Temp
°C
Dew
Point
Rel
Hum
%
Delta-T
°C
Wind Press
QNH
hPa
Press
MSL
hPa
Rain
since 9 am
mm
Dir
 
Spd
km/h
Gust
km/h
Spd
kts
Gust
kts
27/11:30pm 8.2 6.5 5.8 85 1.1 N 4 9 2 5 1028.1 1028.1 0.0
27/11:00pm 9.0 7.8 6.3 83 1.2 N 2 7 1 4 1028.2 1028.2 0.0
27/10:30pm 8.4 6.0 5.3 81 1.4 ENE 7 9 4 5 1028.0 1028.0 0.0
27/10:00pm 10.3 7.5 7.0 80 1.6 ENE 11 11 6 6 1028.0 1028.0 0.0
27/09:30pm 10.2 8.0 6.2 76 1.8 ENE 7 9 4 5 1027.9 1027.9 0.0
27/09:00pm 10.1 7.8 5.7 74 2.0 ENE 7 9 4 5 1027.7 1027.7 0.0
27/08:30pm 11.4 10.4 5.5 67 2.7 CALM 0 0 0 0 1027.7 1027.7 0.0
27/08:00pm 13.2 11.2 6.3 63 3.3 SSE 6 7 3 4 1027.5 1027.5 0.0
27/07:30pm 15.2 12.9 5.7 53 4.5 S 7 9 4 5 1027.3 1027.3 0.0
27/07:00pm 15.0 12.6 6.8 58 4.0 S 9 11 5 6 1026.9 1026.9 0.0
27/06:30pm 14.6 12.4 6.4 58 3.9 S 7 9 4 5 1026.6 1026.6 0.0
27/06:00pm 15.2 12.8 7.2 59 3.9 SSW 9 11 5 6 1026.4 1026.4 0.0
27/05:30pm 16.8 14.7 8.2 57 4.3 SSW 9 11 5 6 1026.1 1026.1 0.0
27/05:00pm 18.2 15.2 7.9 51 5.3 SW 13 15 7 8 1026.0 1026.0 0.0
27/04:30pm 18.8 15.7 7.3 47 5.8 SW 13 17 7 9 1025.7 1025.7 0.0
27/04:00pm 19.5 15.2 6.9 44 6.4 WSW 19 22 10 12 1025.7 1025.7 0.0
27/03:30pm 19.8 15.8 9.1 50 5.6 WSW 20 26 11 14 1025.6 1025.6 0.0
27/03:00pm 20.9 19.1 9.5 48 6.1 NW 9 15 5 8 1025.5 1025.5 0.0
27/02:30pm 20.4 18.5 7.7 44 6.5 N 7 13 4 7 1025.4 1025.4 0.0
27/02:00pm 20.4 18.6 9.6 50 5.8 WNW 9 15 5 8 1025.6 1025.6 0.0
27/01:30pm 19.8 16.9 8.2 47 6.0 W 13 19 7 10 1025.8 1025.8 0.0
27/01:00pm 21.1 18.9 8.0 43 6.8 N 9 15 5 8 1026.2 1026.2 0.0
27/12:30pm 20.3 16.8 5.5 38 7.3 NNE 13 22 7 12 1026.7 1026.7 0.0
27/12:00pm 20.1 17.3 7.1 43 6.6 N 11 17 6 9 1027.2 1027.2 0.0
27/11:30am 19.6 16.3 6.3 42 6.6 N 13 17 7 9 1027.6 1027.6 0.0
27/11:00am 19.1 15.5 6.9 45 6.1 N 15 19 8 10 1027.6 1027.6 0.0
27/10:30am 18.3 14.5 7.4 49 5.5 NNE 17 22 9 12 1027.7 1027.7 0.0
27/10:00am 17.5 13.7 7.5 52 5.0 NNE 17 20 9 11 1027.6 1027.6 0.0
27/09:30am 16.2 13.7 8.2 59 4.0 NNE 11 15 6 8 1027.6 1027.6 0.0
27/09:00am 14.2 12.2 8.8 70 2.7 NNE 9 11 5 6 1027.3 1027.3 0.0
27/08:30am 11.5 9.9 8.2 80 1.6 N 6 7 3 4 1027.2 1027.2 0.0
27/08:00am 8.8 6.7 6.8 87 0.9 NNE 7 9 4 5 1026.9 1026.9 0.0
27/07:30am 6.2 2.1 4.5 89 0.7 ENE 15 17 8 9 1026.2 1026.2 0.0
27/07:00am 3.1 -0.3 1.8 91 0.5 ENE 9 13 5 7 1026.4 1026.4 0.0
27/06:30am 2.1 -1.1 0.6 90 0.6 NNE 7 9 4 5 1026.4 1026.4 0.0
27/06:00am 2.6 -0.9 1.3 91 0.5 NE 9 9 5 5 1026.2 1026.2 0.0
27/05:30am 4.0 1.3 2.4 89 0.6 E 6 7 3 4 1026.1 1026.1 0.0
27/05:00am 2.7 0.1 1.1 89 0.6 WSW 4 7 2 4 1026.0 1026.0 0.0
27/04:30am 3.8 2.2 2.2 89 0.6 CALM 0 0 0 0 1025.4 1025.4 0.0
27/04:00am 4.7 3.2 3.0 89 0.7 CALM 0 0 0 0 1025.2 1025.2 0.0
27/03:30am 4.6 3.1 2.8 88 0.7 CALM 0 0 0 0 1025.3 1025.3 0.0
27/03:00am 4.6 2.3 2.9 89 0.7 NNW 4 6 2 3 1025.0 1025.0 0.0
27/02:30am 4.7 2.4 2.9 88 0.7 NNE 4 6 2 3 1025.2 1025.2 0.0
27/02:00am 5.1 1.9 3.3 88 0.7 NE 9 13 5 7 1025.1 1025.1 0.0
27/01:30am 5.6 2.2 3.8 88 0.8 NE 11 13 6 7 1025.4 1025.4 0.0
27/01:00am 5.9 3.3 4.2 89 0.7 NNE 7 9 4 5 1025.5 1025.5 0.0
27/12:30am 6.2 3.8 4.5 89 0.7 NW 6 7 3 4 1025.5 1025.5 0.0
27/12:00am 5.9 3.7 3.6 85 1.0 SW 4 7 2 4 1025.5 1025.5 0.0
 
Date/Time
CST
Temp
°C
App
Temp
°C
Dew
Point
Rel
Hum
%
Delta-T
°C
Wind Press
QNH
hPa
Press
MSL
hPa
Rain
since 9 am
mm
Dir
 
Spd
km/h
Gust
km/h
Spd
kts
Gust
kts
26/11:30pm 7.7 5.0 5.8 88 0.9 NE 9 9 5 5 1025.4 1025.4 0.0
26/11:00pm 7.2 6.1 5.2 87 0.9 CALM 0 0 0 0 1025.5 1025.5 0.0
26/10:30pm 8.1 6.1 6.1 87 0.9 NNE 6 7 3 4 1025.6 1025.6 0.0
26/10:00pm 8.0 5.7 5.6 85 1.1 NE 7 9 4 5 1025.7 1025.7 0.0
26/09:30pm 7.1 4.8 4.6 84 1.1 ENE 6 7 3 4 1025.7 1025.7 0.0
26/09:00pm 8.7 6.6 6.0 83 1.2 E 6 7 3 4 1025.7 1025.7 0.0
26/08:30pm 8.8 6.8 6.2 84 1.2 E 6 7 3 4 1025.4 1025.4 0.0
26/08:00pm 11.7 9.8 7.6 76 2.0 ESE 7 9 4 5 1025.3 1025.3 0.0
26/07:30pm 10.2 8.7 6.7 79 1.6 S 4 7 2 4 1025.2 1025.2 0.0
26/07:00pm 11.4 10.8 7.5 77 1.9 CALM 0 6 0 3 1025.1 1025.1 0.0
26/06:30pm 11.7 10.0 7.6 76 2.0 SW 6 9 3 5 1024.8 1024.8 0.0
26/06:00pm 12.5 10.4 8.2 75 2.1 SW 9 11 5 6 1024.6 1024.6 0.0
26/05:30pm 14.2 12.0 9.2 72 2.5 SW 11 13 6 7 1024.4 1024.4 0.0
26/05:00pm 15.4 13.0 10.0 70 2.8 SW 13 17 7 9 1024.2 1024.2 0.0
26/04:30pm 15.9 13.0 9.8 67 3.2 SW 15 19 8 10 1024.1 1024.1 0.0
26/04:00pm 16.3 13.2 10.2 67 3.2 WSW 17 20 9 11 1024.1 1024.1 0.0
26/03:30pm 16.4 12.5 9.3 63 3.7 W 20 24 11 13 1024.2 1024.2 0.0
26/03:00pm 19.0 16.2 6.8 45 6.1 NNE 11 20 6 11 1024.1 1024.1 0.0
26/02:30pm 19.0 15.8 6.8 45 6.1 NNE 13 20 7 11 1024.2 1024.2 0.0
26/02:00pm 19.1 16.2 8.1 49 5.7 NNE 13 20 7 11 1024.6 1024.6 0.0
26/01:30pm 18.4 15.5 8.1 51 5.3 N 13 19 7 10 1024.9 1024.9 0.0
26/01:00pm 17.9 15.1 8.5 54 4.8 N 13 19 7 10 1025.2 1025.2 0.0
26/12:30pm 17.5 14.5 7.5 52 5.0 N 13 19 7 10 1025.6 1025.6 0.0
26/12:00pm 17.4 14.5 8.3 55 4.6 NNE 13 19 7 10 1026.0 1026.0 0.0
26/11:30am 16.7 14.3 8.7 59 4.1 NNE 11 17 6 9 1026.6 1026.6 0.0
26/11:00am 16.0 13.3 9.0 63 3.6 NNE 13 19 7 10 1027.1 1027.1 0.0
26/10:30am 15.2 12.5 8.9 66 3.2 NE 13 19 7 10 1027.5 1027.5 0.0
26/10:00am 13.8 11.0 8.6 71 2.6 NNE 13 19 7 10 1027.8 1027.8 0.0
26/09:30am 12.9 10.6 9.0 77 1.9 NNE 11 15 6 8 1028.1 1028.1 0.0
26/09:00am 11.1 10.2 9.2 88 0.9 N 4 7 2 4 1028.2 1028.2 0.0
26/08:30am 8.2 7.5 7.1 93 0.5 CALM 0 6 0 3 1028.2 1028.2 0.0
26/08:00am 6.0 3.7 5.0 93 0.4 NNE 6 7 3 4 1028.1 1028.1 0.0
26/07:30am 3.6 1.7 2.7 94 0.4 NW 2 6 1 3 1027.8 1027.8 0.0
26/07:00am 2.0 -1.5 1.0 93 0.4 W 9 9 5 5 1027.6 1027.6 0.0
26/06:30am 3.9 1.3 3.0 94 0.4 NNE 6 9 3 5 1027.0 1027.0 0.0
26/06:00am 2.8 -0.6 1.8 93 0.4 NE 9 11 5 6 1026.9 1026.9 0.0
26/05:30am 3.3 0.9 2.3 93 0.4 ENE 4 6 2 3 1026.9 1026.9 0.0
26/05:00am 3.0 0.6 2.0 93 0.4 NNE 4 6 2 3 1026.9 1026.9 0.0
26/04:30am 2.4 -0.7 1.2 92 0.5 NW 7 11 4 6 1026.8 1026.8 0.0
26/04:00am 4.0 2.5 3.0 93 0.4 CALM 0 0 0 0 1026.8 1026.8 0.0
26/03:30am 3.3 1.3 2.3 93 0.4 NW 2 6 1 3 1026.9 1026.9 0.0
26/03:00am 2.9 0.0 1.7 92 0.5 NNW 6 6 3 3 1027.1 1027.1 0.0
26/02:30am 2.8 -0.3 1.6 92 0.5 WNW 7 9 4 5 1027.3 1027.3 0.0
26/02:00am 3.1 -0.3 1.9 92 0.5 WNW 9 11 5 6 1027.5 1027.5 0.0
26/01:30am 3.9 1.0 2.6 91 0.5 W 7 9 4 5 1027.7 1027.7 0.0
26/01:00am 4.2 1.3 2.7 90 0.6 W 7 9 4 5 1027.8 1027.8 0.0
26/12:30am 4.5 1.9 3.0 90 0.6 WNW 6 9 3 5 1027.8 1027.8 0.0
26/12:00am 4.6 1.4 3.1 90 0.6 WNW 9 11 5 6 1028.1 1028.1 0.0
 
Date/Time
CST
Temp
°C
App
Temp
°C
Dew
Point
Rel
Hum
%
Delta-T
°C
Wind Press
QNH
hPa
Press
MSL
hPa
Rain
since 9 am
mm
Dir
 
Spd
km/h
Gust
km/h
Spd
kts
Gust
kts
25/11:30pm 4.6 1.9 2.9 89 0.7 W 6 6 3 3 1028.1 1028.1 0.0
25/11:00pm 5.3 2.7 3.2 86 0.9 WSW 6 7 3 4 1028.4 1028.4 0.0
25/10:30pm 6.1 4.7 3.8 85 1.0 CALM 0 0 0 0 1028.5 1028.5 0.0
25/10:00pm 6.8 5.5 4.1 83 1.2 CALM 0 0 0 0 1028.7 1028.7 0.0
25/09:30pm 10.2 8.0 6.0 75 1.9 ESE 7 13 4 7 1028.8 1028.8 0.0
25/09:00pm 10.7 8.1 6.3 74 2.0 E 9 15 5 8 1029.0 1029.0 0.0
25/08:30pm 11.1 8.3 6.8 75 2.0 ESE 11 17 6 9 1029.0 1029.0 0.0

Other Formats:

Comma delimited format used in spreadsheet applications
http://www.bom.gov.au/fwo/IDS60801/IDS60801.95676.axf

JavaScript Object Notation format (JSON) in row-major order
http://www.bom.gov.au/fwo/IDS60801/IDS60801.95676.json